createdAt,value
2018-08-12T00:00:16.366Z,1014.91
2018-08-12T00:01:16.386Z,1014.95
2018-08-12T00:02:16.404Z,1014.92
2018-08-12T00:03:16.425Z,1014.90
2018-08-12T00:04:16.702Z,1014.96
2018-08-12T00:05:16.473Z,1014.97
2018-08-12T00:06:16.491Z,1014.95
2018-08-12T00:07:16.514Z,1014.93
2018-08-12T00:08:16.537Z,1014.88
2018-08-12T00:09:16.556Z,1014.88
2018-08-12T00:10:16.581Z,1014.84
2018-08-12T00:11:16.601Z,1014.83
2018-08-12T00:12:16.621Z,1014.84
2018-08-12T00:13:16.644Z,1014.82
2018-08-12T00:14:16.665Z,1014.83
2018-08-12T00:15:16.747Z,1014.86
2018-08-12T00:16:16.709Z,1014.81
2018-08-12T00:17:16.727Z,1014.81
2018-08-12T00:18:16.748Z,1014.76
2018-08-12T00:19:16.773Z,1014.76
2018-08-12T00:20:16.794Z,1014.76
2018-08-12T00:21:16.812Z,1014.75
2018-08-12T00:22:16.836Z,1014.74
2018-08-12T00:23:16.854Z,1014.71
2018-08-12T00:24:16.917Z,1014.73
2018-08-12T00:25:16.901Z,1014.75
2018-08-12T00:26:16.923Z,1014.71
2018-08-12T00:27:16.942Z,1014.67
2018-08-12T00:28:16.965Z,1014.66
2018-08-12T00:29:16.984Z,1014.69
2018-08-12T00:30:17.007Z,1014.65
2018-08-12T00:31:17.029Z,1014.68
2018-08-12T00:32:17.047Z,1014.67
2018-08-12T00:33:17.071Z,1014.66
2018-08-12T00:34:17.089Z,1014.64
2018-08-12T00:35:17.146Z,1014.61
2018-08-12T00:36:17.135Z,1014.59
2018-08-12T00:37:17.157Z,1014.61
2018-08-12T00:38:17.175Z,1014.59
2018-08-12T00:39:17.198Z,1014.60
2018-08-12T00:40:17.220Z,1014.60
2018-08-12T00:41:17.241Z,1014.59
2018-08-12T00:42:17.264Z,1014.63
2018-08-12T00:43:17.281Z,1014.64
2018-08-12T00:44:17.305Z,1014.65
2018-08-12T00:45:17.326Z,1014.63
2018-08-12T00:46:17.347Z,1014.62
2018-08-12T00:47:17.366Z,1014.63
2018-08-12T00:48:17.387Z,1014.65
2018-08-12T00:49:17.408Z,1014.64
2018-08-12T00:50:17.429Z,1014.62
2018-08-12T00:51:17.450Z,1014.68
2018-08-12T00:52:17.472Z,1014.65
2018-08-12T00:53:17.494Z,1014.66
2018-08-12T00:54:17.513Z,1014.67
2018-08-12T00:55:17.540Z,1014.62
2018-08-12T00:56:17.559Z,1014.64
2018-08-12T00:57:17.580Z,1014.63
2018-08-12T00:58:17.649Z,1014.65
2018-08-12T00:59:17.618Z,1014.62
2018-08-12T01:00:17.643Z,1014.67
2018-08-12T01:01:17.662Z,1014.71
2018-08-12T01:02:17.682Z,1014.64
2018-08-12T01:03:17.703Z,1014.59
2018-08-12T01:04:17.728Z,1014.61
2018-08-12T01:05:17.746Z,1014.56
2018-08-12T01:06:17.768Z,1014.56
2018-08-12T01:07:17.787Z,1014.61
2018-08-12T01:08:17.809Z,1014.53
2018-08-12T01:09:17.833Z,1014.55
2018-08-12T01:10:17.859Z,1014.54
2018-08-12T01:11:17.871Z,1014.56
2018-08-12T01:12:17.894Z,1014.52
2018-08-12T01:13:17.915Z,1014.54
2018-08-12T01:14:17.938Z,1014.51
2018-08-12T01:15:17.957Z,1014.52
2018-08-12T01:16:17.976Z,1014.51
2018-08-12T01:17:17.997Z,1014.50
2018-08-12T01:18:18.018Z,1014.50
2018-08-12T01:19:18.041Z,1014.54
2018-08-12T01:20:18.062Z,1014.52
2018-08-12T01:21:18.081Z,1014.56
2018-08-12T01:22:18.105Z,1014.57
2018-08-12T01:23:18.126Z,1014.56
2018-08-12T01:24:18.146Z,1014.56
2018-08-12T01:25:18.165Z,1014.53
2018-08-12T01:26:18.187Z,1014.50
2018-08-12T01:27:18.208Z,1014.52
2018-08-12T01:28:18.228Z,1014.48
2018-08-12T01:29:18.248Z,1014.46
2018-08-12T01:30:18.269Z,1014.47
2018-08-12T01:31:18.293Z,1014.48
2018-08-12T01:32:18.312Z,1014.48
2018-08-12T01:33:18.334Z,1014.45
2018-08-12T01:34:18.353Z,1014.50
2018-08-12T01:35:18.375Z,1014.47
2018-08-12T01:36:18.397Z,1014.49
2018-08-12T01:37:18.418Z,1014.55
2018-08-12T01:38:18.439Z,1014.48
2018-08-12T01:39:18.461Z,1014.49
2018-08-12T01:40:18.482Z,1014.47
2018-08-12T01:41:18.499Z,1014.45
2018-08-12T01:42:18.519Z,1014.44
2018-08-12T01:43:18.546Z,1014.42
2018-08-12T01:44:18.561Z,1014.40
2018-08-12T01:45:18.684Z,1014.41
2018-08-12T01:46:18.606Z,1014.38
2018-08-12T01:47:18.625Z,1014.38
2018-08-12T01:48:19.098Z,1014.37
2018-08-12T01:49:18.666Z,1014.37
2018-08-12T01:50:18.686Z,1014.35
2018-08-12T01:51:19.110Z,1014.34
2018-08-12T01:52:18.729Z,1014.35
2018-08-12T01:53:18.749Z,1014.34
2018-08-12T01:54:19.072Z,1014.32
2018-08-12T01:55:18.790Z,1014.31
2018-08-12T01:56:18.812Z,1014.30
2018-08-12T01:57:18.833Z,1014.22
2018-08-12T01:58:18.853Z,1014.23
2018-08-12T01:59:18.878Z,1014.17
2018-08-12T02:00:18.898Z,1014.12
2018-08-12T02:01:18.921Z,1014.12
2018-08-12T02:02:18.937Z,1014.11
2018-08-12T02:03:18.959Z,1014.12
2018-08-12T02:04:18.982Z,1014.10
2018-08-12T02:05:19.000Z,1014.08
2018-08-12T02:06:19.021Z,1014.09
2018-08-12T02:07:19.043Z,1014.11
2018-08-12T02:08:19.060Z,1014.08
2018-08-12T02:09:19.085Z,1014.08
2018-08-12T02:10:19.103Z,1014.07
2018-08-12T02:11:19.124Z,1014.02
2018-08-12T02:12:19.148Z,1014.03
2018-08-12T02:13:19.167Z,1013.98
2018-08-12T02:14:19.186Z,1013.99
2018-08-12T02:15:19.211Z,1013.94
2018-08-12T02:16:19.229Z,1013.94
2018-08-12T02:17:19.252Z,1013.91
2018-08-12T02:18:19.270Z,1013.91
2018-08-12T02:19:19.290Z,1013.93
2018-08-12T02:20:19.310Z,1013.88
2018-08-12T02:21:19.334Z,1013.86
2018-08-12T02:22:19.352Z,1013.87
2018-08-12T02:23:19.376Z,1013.83
2018-08-12T02:24:19.394Z,1013.79
2018-08-12T02:25:19.415Z,1013.79
2018-08-12T02:26:19.438Z,1013.78
2018-08-12T02:27:19.456Z,1013.69
2018-08-12T02:28:19.589Z,1013.72
2018-08-12T02:29:19.502Z,1013.66
2018-08-12T02:30:19.520Z,1013.68
2018-08-12T02:31:19.544Z,1013.61
2018-08-12T02:32:19.564Z,1013.65
2018-08-12T02:33:19.584Z,1013.63
2018-08-12T02:34:19.605Z,1013.62
2018-08-12T02:35:19.625Z,1013.64
2018-08-12T02:36:19.645Z,1013.62
2018-08-12T02:37:19.667Z,1013.66
2018-08-12T02:38:19.686Z,1013.66
2018-08-12T02:39:19.710Z,1013.66
2018-08-12T02:40:19.728Z,1013.62
2018-08-12T02:41:19.751Z,1013.60
2018-08-12T02:42:19.773Z,1013.62
2018-08-12T02:43:19.788Z,1013.58
2018-08-12T02:44:19.811Z,1013.57
2018-08-12T02:45:19.833Z,1013.52
2018-08-12T02:46:19.853Z,1013.54
2018-08-12T02:47:19.875Z,1013.55
2018-08-12T02:48:19.898Z,1013.54
2018-08-12T02:49:19.915Z,1013.55
2018-08-12T02:50:19.939Z,1013.51
2018-08-12T02:51:19.960Z,1013.57
2018-08-12T02:52:19.980Z,1013.53
2018-08-12T02:53:20.004Z,1013.54
2018-08-12T02:54:20.023Z,1013.53
2018-08-12T02:55:20.044Z,1013.52
2018-08-12T02:56:20.067Z,1013.46
2018-08-12T02:57:20.082Z,1013.49
2018-08-12T02:58:20.131Z,1013.49
2018-08-12T02:59:20.126Z,1013.50
2018-08-12T03:00:20.146Z,1013.50
2018-08-12T03:01:20.167Z,1013.49
2018-08-12T03:02:20.185Z,1013.51
2018-08-12T03:03:20.208Z,1013.47
2018-08-12T03:04:20.229Z,1013.50
2018-08-12T03:05:20.250Z,1013.51
2018-08-12T03:06:20.280Z,1013.44
2018-08-12T03:07:20.291Z,1013.45
2018-08-12T03:08:20.309Z,1013.43
2018-08-12T03:09:20.330Z,1013.39
2018-08-12T03:10:20.350Z,1013.37
2018-08-12T03:11:20.376Z,1013.40
2018-08-12T03:12:20.393Z,1013.36
2018-08-12T03:13:20.411Z,1013.39
2018-08-12T03:14:20.431Z,1013.37
2018-08-12T03:15:20.457Z,1013.40
2018-08-12T03:16:20.477Z,1013.36
2018-08-12T03:17:20.495Z,1013.33
2018-08-12T03:18:20.518Z,1013.31
2018-08-12T03:19:20.535Z,1013.32
2018-08-12T03:20:20.558Z,1013.29
2018-08-12T03:21:20.576Z,1013.31
2018-08-12T03:22:20.611Z,1013.29
2018-08-12T03:23:20.617Z,1013.28
2018-08-12T03:24:20.640Z,1013.28
2018-08-12T03:25:20.660Z,1013.25
2018-08-12T03:26:20.679Z,1013.24
2018-08-12T03:27:20.698Z,1013.22
2018-08-12T03:28:20.723Z,1013.19
2018-08-12T03:29:20.741Z,1013.19
2018-08-12T03:30:20.773Z,1013.16
2018-08-12T03:31:20.782Z,1013.20
2018-08-12T03:32:20.819Z,1013.16
2018-08-12T03:33:20.824Z,1013.17
2018-08-12T03:34:20.841Z,1013.13
2018-08-12T03:35:20.861Z,1013.12
2018-08-12T03:36:20.884Z,1013.13
2018-08-12T03:37:20.902Z,1013.10
2018-08-12T03:38:20.925Z,1013.06
2018-08-12T03:39:20.942Z,1013.09
2018-08-12T03:40:20.966Z,1013.07
2018-08-12T03:41:20.983Z,1013.02
2018-08-12T03:42:21.004Z,1013.04
2018-08-12T03:43:21.025Z,1013.04
2018-08-12T03:44:21.045Z,1013.02
2018-08-12T03:45:21.068Z,1012.98
2018-08-12T03:46:21.085Z,1012.98
2018-08-12T03:47:21.105Z,1013.03
2018-08-12T03:48:21.127Z,1012.97
2018-08-12T03:49:21.148Z,1013.00
2018-08-12T03:50:21.167Z,1012.99
2018-08-12T03:51:21.186Z,1012.94
2018-08-12T03:52:21.208Z,1012.96
2018-08-12T03:53:21.228Z,1012.97
2018-08-12T03:54:21.248Z,1012.95
2018-08-12T03:55:21.269Z,1012.96
2018-08-12T03:56:21.287Z,1012.93
2018-08-12T03:57:21.310Z,1012.93
2018-08-12T03:58:21.328Z,1012.92
2018-08-12T03:59:21.348Z,1012.88
2018-08-12T04:00:21.371Z,1012.89
2018-08-12T04:01:21.391Z,1012.85
2018-08-12T04:02:21.505Z,1012.89
2018-08-12T04:03:21.432Z,1012.85
2018-08-12T04:04:21.450Z,1012.87
2018-08-12T04:05:21.473Z,1012.86
2018-08-12T04:06:21.488Z,1012.87
2018-08-12T04:07:21.511Z,1012.81
2018-08-12T04:08:21.529Z,1012.85
2018-08-12T04:09:21.553Z,1012.84
2018-08-12T04:10:21.575Z,1012.86
2018-08-12T04:11:21.594Z,1012.86
2018-08-12T04:12:21.610Z,1012.86
2018-08-12T04:13:21.633Z,1012.86
2018-08-12T04:14:21.650Z,1012.79
2018-08-12T04:15:21.671Z,1012.82
2018-08-12T04:16:21.694Z,1012.83
2018-08-12T04:17:21.712Z,1012.77
2018-08-12T04:18:21.731Z,1012.73
2018-08-12T04:19:21.754Z,1012.77
2018-08-12T04:20:21.771Z,1012.76
2018-08-12T04:21:21.793Z,1012.78
2018-08-12T04:22:21.810Z,1012.80
2018-08-12T04:23:21.834Z,1012.79
2018-08-12T04:24:21.853Z,1012.77
2018-08-12T04:25:21.874Z,1012.79
2018-08-12T04:26:21.893Z,1012.76
2018-08-12T04:27:21.911Z,1012.75
2018-08-12T04:28:21.931Z,1012.74
2018-08-12T04:29:21.954Z,1012.79
2018-08-12T04:30:21.973Z,1012.76
2018-08-12T04:31:21.992Z,1012.77
2018-08-12T04:32:22.013Z,1012.71
2018-08-12T04:33:22.033Z,1012.73
2018-08-12T04:34:22.051Z,1012.73
2018-08-12T04:35:22.072Z,1012.73
2018-08-12T04:36:22.095Z,1012.72
2018-08-12T04:37:22.112Z,1012.75
2018-08-12T04:38:22.134Z,1012.72
2018-08-12T04:39:22.154Z,1012.66
2018-08-12T04:40:22.177Z,1012.67
2018-08-12T04:41:22.193Z,1012.62
2018-08-12T04:42:22.215Z,1012.67
2018-08-12T04:43:22.234Z,1012.61
2018-08-12T04:44:22.253Z,1012.58
2018-08-12T04:45:22.277Z,1012.58
2018-08-12T04:46:22.295Z,1012.61
2018-08-12T04:47:22.313Z,1012.58
2018-08-12T04:48:22.334Z,1012.61
2018-08-12T04:49:22.357Z,1012.59
2018-08-12T04:50:22.372Z,1012.55
2018-08-12T04:51:22.396Z,1012.53
2018-08-12T04:52:22.416Z,1012.56
2018-08-12T04:53:22.437Z,1012.54
2018-08-12T04:54:22.452Z,1012.55
2018-08-12T04:55:22.477Z,1012.55
2018-08-12T04:56:22.494Z,1012.53
2018-08-12T04:57:22.515Z,1012.51
2018-08-12T04:58:22.537Z,1012.49
2018-08-12T04:59:22.557Z,1012.51
2018-08-12T05:00:22.577Z,1012.52
2018-08-12T05:01:22.596Z,1012.55
2018-08-12T05:02:22.617Z,1012.55
2018-08-12T05:03:22.634Z,1012.54
2018-08-12T05:04:22.657Z,1012.57
2018-08-12T05:05:22.675Z,1012.54
2018-08-12T05:06:22.694Z,1012.56
2018-08-12T05:07:22.715Z,1012.58
2018-08-12T05:08:22.740Z,1012.57
2018-08-12T05:09:22.759Z,1012.50
2018-08-12T05:10:22.774Z,1012.50
2018-08-12T05:11:22.799Z,1012.52
2018-08-12T05:12:22.818Z,1012.53
2018-08-12T05:13:22.842Z,1012.53
2018-08-12T05:14:22.859Z,1012.51
2018-08-12T05:15:22.878Z,1012.56
2018-08-12T05:16:22.898Z,1012.50
2018-08-12T05:17:22.917Z,1012.49
2018-08-12T05:18:22.946Z,1012.50
2018-08-12T05:19:22.959Z,1012.51
2018-08-12T05:20:22.981Z,1012.52
2018-08-12T05:21:23.000Z,1012.51
2018-08-12T05:22:23.020Z,1012.55
2018-08-12T05:23:23.040Z,1012.53
2018-08-12T05:24:23.060Z,1012.46
2018-08-12T05:25:23.080Z,1012.48
2018-08-12T05:26:23.103Z,1012.49
2018-08-12T05:27:23.120Z,1012.46
2018-08-12T05:28:23.144Z,1012.47
2018-08-12T05:29:23.164Z,1012.48
2018-08-12T05:30:23.183Z,1012.47
2018-08-12T05:31:23.204Z,1012.48
2018-08-12T05:32:23.224Z,1012.42
2018-08-12T05:33:23.245Z,1012.45
2018-08-12T05:34:23.267Z,1012.42
2018-08-12T05:35:23.285Z,1012.35
2018-08-12T05:36:23.313Z,1012.35
2018-08-12T05:37:23.330Z,1012.38
2018-08-12T05:38:23.350Z,1012.39
2018-08-12T05:39:23.371Z,1012.38
2018-08-12T05:40:23.391Z,1012.37
2018-08-12T05:41:23.411Z,1012.38
2018-08-12T05:42:23.434Z,1012.34
2018-08-12T05:43:23.455Z,1012.35
2018-08-12T05:44:23.476Z,1012.35
2018-08-12T05:45:23.494Z,1012.37
2018-08-12T05:46:23.514Z,1012.34
2018-08-12T05:47:23.540Z,1012.37
2018-08-12T05:48:23.559Z,1012.39
2018-08-12T05:49:23.582Z,1012.41
2018-08-12T05:50:23.599Z,1012.35
2018-08-12T05:51:23.627Z,1012.35
2018-08-12T05:52:23.645Z,1012.32
2018-08-12T05:53:23.670Z,1012.32
2018-08-12T05:54:23.688Z,1012.34
2018-08-12T05:55:23.706Z,1012.33
2018-08-12T05:56:23.766Z,1012.32
2018-08-12T05:57:23.755Z,1012.31
2018-08-12T05:58:23.774Z,1012.30
2018-08-12T05:59:23.793Z,1012.26
2018-08-12T06:00:23.817Z,1012.28
2018-08-12T06:01:23.838Z,1012.24
2018-08-12T06:02:23.857Z,1012.23
2018-08-12T06:03:23.879Z,1012.24
2018-08-12T06:04:23.900Z,1012.19
2018-08-12T06:05:23.924Z,1012.21
2018-08-12T06:06:23.946Z,1012.17
2018-08-12T06:07:23.967Z,1012.16
2018-08-12T06:08:23.991Z,1012.17
2018-08-12T06:09:24.011Z,1012.09
2018-08-12T06:10:24.032Z,1012.15
2018-08-12T06:11:24.051Z,1012.17
2018-08-12T06:12:24.072Z,1012.11
2018-08-12T06:13:24.097Z,1012.12
2018-08-12T06:14:24.117Z,1012.12
2018-08-12T06:15:24.140Z,1012.09
2018-08-12T06:16:24.161Z,1012.10
2018-08-12T06:17:24.306Z,1012.12
2018-08-12T06:18:24.204Z,1012.09
2018-08-12T06:19:24.223Z,1012.12
2018-08-12T06:20:24.245Z,1012.05
2018-08-12T06:21:24.270Z,1012.05
2018-08-12T06:22:24.289Z,1012.01
2018-08-12T06:23:24.310Z,1012.05
2018-08-12T06:24:24.335Z,1012.04
2018-08-12T06:25:24.357Z,1012.05
2018-08-12T06:26:24.376Z,1012.03
2018-08-12T06:27:24.402Z,1011.99
2018-08-12T06:28:24.423Z,1012.07
2018-08-12T06:29:24.441Z,1012.02
2018-08-12T06:30:24.464Z,1012.07
2018-08-12T06:31:24.511Z,1012.05
2018-08-12T06:32:24.517Z,1012.00
2018-08-12T06:33:24.532Z,1011.98
2018-08-12T06:34:24.590Z,1011.98
2018-08-12T06:35:24.573Z,1011.94
2018-08-12T06:36:24.594Z,1011.99
2018-08-12T06:37:24.619Z,1011.97
2018-08-12T06:38:24.638Z,1011.97
2018-08-12T06:39:24.662Z,1011.90
2018-08-12T06:40:24.683Z,1011.90
2018-08-12T06:41:24.706Z,1011.90
2018-08-12T06:42:24.727Z,1011.89
2018-08-12T06:43:24.747Z,1011.91
2018-08-12T06:44:24.778Z,1011.88
2018-08-12T06:45:24.792Z,1011.87
2018-08-12T06:46:24.830Z,1011.90
2018-08-12T06:47:24.835Z,1011.87
2018-08-12T06:48:24.862Z,1011.87
2018-08-12T06:49:24.885Z,1011.89
2018-08-12T06:50:24.907Z,1011.88
2018-08-12T06:51:24.926Z,1011.90
2018-08-12T06:52:24.947Z,1011.88
2018-08-12T06:53:24.972Z,1011.90
2018-08-12T06:54:24.992Z,1011.89
2018-08-12T06:55:25.012Z,1011.90
2018-08-12T06:56:25.035Z,1011.90
2018-08-12T06:57:25.059Z,1011.92
2018-08-12T06:58:25.082Z,1011.96
2018-08-12T06:59:25.100Z,1011.96
2018-08-12T07:00:25.130Z,1011.96
2018-08-12T07:01:25.146Z,1011.98
2018-08-12T07:02:25.166Z,1011.98
2018-08-12T07:03:25.189Z,1011.96
2018-08-12T07:04:25.211Z,1011.99
2018-08-12T07:05:25.234Z,1012.00
2018-08-12T07:06:25.256Z,1012.00
2018-08-12T07:07:25.280Z,1012.01
2018-08-12T07:08:25.305Z,1012.04
2018-08-12T07:09:25.325Z,1012.02
2018-08-12T07:10:25.349Z,1012.01
2018-08-12T07:11:25.368Z,1012.00
2018-08-12T07:12:25.394Z,1011.97
2018-08-12T07:13:25.415Z,1011.98
2018-08-12T07:14:25.475Z,1011.99
2018-08-12T07:15:25.461Z,1011.97
2018-08-12T07:16:25.488Z,1011.98
2018-08-12T07:17:25.508Z,1011.94
2018-08-12T07:18:25.526Z,1011.93
2018-08-12T07:19:25.549Z,1011.94
2018-08-12T07:20:25.574Z,1011.90
2018-08-12T07:21:25.596Z,1011.95
2018-08-12T07:22:25.622Z,1011.92
2018-08-12T07:23:25.644Z,1011.89
2018-08-12T07:24:25.664Z,1011.92
2018-08-12T07:25:25.691Z,1011.88
2018-08-12T07:26:25.712Z,1011.85
2018-08-12T07:27:25.732Z,1011.89
2018-08-12T07:28:25.758Z,1011.86
2018-08-12T07:29:25.784Z,1011.85
2018-08-12T07:30:25.802Z,1011.86
2018-08-12T07:31:25.825Z,1011.86
2018-08-12T07:32:25.847Z,1011.88
2018-08-12T07:33:25.870Z,1011.89
2018-08-12T07:34:25.900Z,1011.90
2018-08-12T07:35:25.921Z,1011.90
2018-08-12T07:36:25.943Z,1011.90
2018-08-12T07:37:25.965Z,1011.88
2018-08-12T07:38:25.989Z,1011.95
2018-08-12T07:39:26.013Z,1011.88
2018-08-12T07:40:26.039Z,1011.89
2018-08-12T07:41:26.066Z,1011.86
2018-08-12T07:42:26.087Z,1011.84
2018-08-12T07:43:26.105Z,1011.82
2018-08-12T07:44:26.133Z,1011.83
2018-08-12T07:45:26.154Z,1011.77
2018-08-12T07:46:26.179Z,1011.83
2018-08-12T07:47:26.205Z,1011.80
2018-08-12T07:48:26.226Z,1011.79
2018-08-12T07:49:26.251Z,1011.79
2018-08-12T07:50:26.279Z,1011.79
2018-08-12T07:51:26.303Z,1011.77
2018-08-12T07:52:26.325Z,1011.70
2018-08-12T07:53:26.350Z,1011.71
2018-08-12T07:54:26.380Z,1011.72
2018-08-12T07:55:26.451Z,1011.74
2018-08-12T07:56:26.424Z,1011.70
2018-08-12T07:57:26.450Z,1011.72
2018-08-12T07:58:26.476Z,1011.73
2018-08-12T07:59:26.498Z,1011.69
2018-08-12T08:00:26.527Z,1011.71
2018-08-12T08:01:26.553Z,1011.66
2018-08-12T08:02:26.575Z,1011.68
2018-08-12T08:03:26.601Z,1011.68
2018-08-12T08:04:26.628Z,1011.64
2018-08-12T08:05:26.652Z,1011.62
2018-08-12T08:06:26.678Z,1011.64
2018-08-12T08:07:26.702Z,1011.64
2018-08-12T08:08:26.728Z,1011.60
2018-08-12T08:09:26.753Z,1011.60
2018-08-12T08:10:26.781Z,1011.60
2018-08-12T08:11:26.807Z,1011.57
2018-08-12T08:12:26.848Z,1011.63
2018-08-12T08:13:26.857Z,1011.60
2018-08-12T08:14:26.880Z,1011.64
2018-08-12T08:15:26.949Z,1011.64
2018-08-12T08:16:26.932Z,1011.63
2018-08-12T08:17:26.959Z,1011.61
2018-08-12T08:18:26.986Z,1011.59
2018-08-12T08:19:27.009Z,1011.61
2018-08-12T08:20:27.041Z,1011.60
2018-08-12T08:21:27.062Z,1011.59
2018-08-12T08:22:27.088Z,1011.61
2018-08-12T08:23:27.111Z,1011.58
2018-08-12T08:24:27.143Z,1011.60
2018-08-12T08:25:27.267Z,1011.56
2018-08-12T08:26:27.189Z,1011.57
2018-08-12T08:27:27.217Z,1011.60
2018-08-12T08:28:27.243Z,1011.56
2018-08-12T08:29:27.272Z,1011.56
2018-08-12T08:30:27.295Z,1011.52
2018-08-12T08:31:27.408Z,1011.57
2018-08-12T08:32:27.348Z,1011.54
2018-08-12T08:33:27.377Z,1011.57
2018-08-12T08:34:27.401Z,1011.54
2018-08-12T08:35:27.426Z,1011.52
2018-08-12T08:36:27.454Z,1011.52
2018-08-12T08:37:27.484Z,1011.49
2018-08-12T08:38:27.513Z,1011.49
2018-08-12T08:39:27.533Z,1011.42
2018-08-12T08:40:27.561Z,1011.49
2018-08-12T08:41:27.588Z,1011.43
2018-08-12T08:42:27.615Z,1011.42
2018-08-12T08:43:27.639Z,1011.40
2018-08-12T08:44:27.665Z,1011.39
2018-08-12T08:45:27.695Z,1011.35
2018-08-12T08:46:27.717Z,1011.38
2018-08-12T08:47:27.748Z,1011.34
2018-08-12T08:48:27.775Z,1011.32
2018-08-12T08:49:27.797Z,1011.33
2018-08-12T08:50:27.826Z,1011.31
2018-08-12T08:51:27.852Z,1011.33
2018-08-12T08:52:27.876Z,1011.27
2018-08-12T08:53:27.905Z,1011.36
2018-08-12T08:54:27.929Z,1011.34
2018-08-12T08:55:27.957Z,1011.31
2018-08-12T08:56:27.983Z,1011.33
2018-08-12T08:57:28.012Z,1011.32
2018-08-12T08:58:28.039Z,1011.27
2018-08-12T08:59:28.062Z,1011.30
2018-08-12T09:00:28.091Z,1011.31
2018-08-12T09:01:28.151Z,1011.31
2018-08-12T09:02:28.141Z,1011.29
2018-08-12T09:03:28.168Z,1011.28
2018-08-12T09:04:28.194Z,1011.24
2018-08-12T09:05:28.222Z,1011.28
2018-08-12T09:06:28.246Z,1011.24
2018-08-12T09:07:28.273Z,1011.24
2018-08-12T09:08:28.650Z,1011.29
2018-08-12T09:09:28.325Z,1011.27
2018-08-12T09:10:28.349Z,1011.22
2018-08-12T09:11:28.378Z,1011.27
2018-08-12T09:12:28.403Z,1011.24
2018-08-12T09:13:28.432Z,1011.24
2018-08-12T09:14:28.458Z,1011.27
2018-08-12T09:15:28.487Z,1011.28
2018-08-12T09:16:28.510Z,1011.24
2018-08-12T09:17:28.538Z,1011.22
2018-08-12T09:18:28.562Z,1011.19
2018-08-12T09:19:28.590Z,1011.20
2018-08-12T09:20:28.615Z,1011.21
2018-08-12T09:21:28.643Z,1011.17
2018-08-12T09:22:28.665Z,1011.12
2018-08-12T09:23:28.695Z,1011.13
2018-08-12T09:24:28.721Z,1011.14
2018-08-12T09:25:28.748Z,1011.12
2018-08-12T09:26:28.774Z,1011.11
2018-08-12T09:27:28.801Z,1011.11
2018-08-12T09:28:28.830Z,1011.10
2018-08-12T09:29:28.853Z,1011.09
2018-08-12T09:30:28.880Z,1011.05
2018-08-12T09:31:28.908Z,1011.10
2018-08-12T09:32:28.938Z,1011.09
2018-08-12T09:33:28.959Z,1011.09
2018-08-12T09:34:28.984Z,1011.05
2018-08-12T09:35:29.014Z,1011.07
2018-08-12T09:36:29.041Z,1011.04
2018-08-12T09:37:29.067Z,1011.02
2018-08-12T09:38:29.091Z,1011.05
2018-08-12T09:39:29.120Z,1010.93
2018-08-12T09:40:29.150Z,1010.97
2018-08-12T09:41:29.173Z,1010.94
2018-08-12T09:42:29.200Z,1010.91
2018-08-12T09:43:29.228Z,1010.91
2018-08-12T09:44:29.254Z,1010.88
2018-08-12T09:45:29.281Z,1010.93
2018-08-12T09:46:29.305Z,1010.85
2018-08-12T09:47:29.335Z,1010.88
2018-08-12T09:48:29.410Z,1010.93
2018-08-12T09:49:29.389Z,1010.92
2018-08-12T09:50:29.412Z,1010.91
2018-08-12T09:51:29.495Z,1010.90
2018-08-12T09:52:29.469Z,1010.91
2018-08-12T09:53:29.493Z,1010.87
2018-08-12T09:54:29.519Z,1010.80
2018-08-12T09:55:29.546Z,1010.88
2018-08-12T09:56:29.572Z,1010.86
2018-08-12T09:57:29.600Z,1010.85
2018-08-12T09:58:29.693Z,1010.79
2018-08-12T09:59:29.656Z,1010.85
2018-08-12T10:00:29.680Z,1010.79
2018-08-12T10:01:29.707Z,1010.77
2018-08-12T10:02:29.732Z,1010.80
2018-08-12T10:03:29.762Z,1010.78
2018-08-12T10:04:29.791Z,1010.78
2018-08-12T10:05:29.814Z,1010.84
2018-08-12T10:06:29.842Z,1010.78
2018-08-12T10:07:29.908Z,1010.78
2018-08-12T10:08:29.900Z,1010.76
2018-08-12T10:09:29.921Z,1010.78
2018-08-12T10:10:29.950Z,1010.75
2018-08-12T10:11:29.974Z,1010.73
2018-08-12T10:12:30.005Z,1010.73
2018-08-12T10:13:30.029Z,1010.76
2018-08-12T10:14:30.057Z,1010.75
2018-08-12T10:15:30.140Z,1010.76
2018-08-12T10:16:30.110Z,1010.76
2018-08-12T10:17:30.136Z,1010.76
2018-08-12T10:18:30.174Z,1010.68
2018-08-12T10:19:30.190Z,1010.73
2018-08-12T10:20:30.216Z,1010.70
2018-08-12T10:21:30.247Z,1010.64
2018-08-12T10:22:30.270Z,1010.59
2018-08-12T10:23:30.309Z,1010.60
2018-08-12T10:24:30.328Z,1010.62
2018-08-12T10:25:30.352Z,1010.61
2018-08-12T10:26:30.377Z,1010.57
2018-08-12T10:27:30.405Z,1010.54
2018-08-12T10:28:30.433Z,1010.53
2018-08-12T10:29:30.460Z,1010.47
2018-08-12T10:30:30.487Z,1010.42
2018-08-12T10:31:30.513Z,1010.43
2018-08-12T10:32:30.539Z,1010.42
2018-08-12T10:33:30.566Z,1010.42
2018-08-12T10:34:30.593Z,1010.44
2018-08-12T10:35:30.619Z,1010.46
2018-08-12T10:36:30.650Z,1010.38
2018-08-12T10:37:30.677Z,1010.37
2018-08-12T10:38:30.703Z,1010.34
2018-08-12T10:39:30.730Z,1010.37
2018-08-12T10:40:30.758Z,1010.30
2018-08-12T10:41:30.781Z,1010.29
2018-08-12T10:42:30.808Z,1010.17
2018-08-12T10:43:30.845Z,1010.29
2018-08-12T10:44:30.959Z,1010.29
2018-08-12T10:45:30.893Z,1010.29
2018-08-12T10:46:30.918Z,1010.27
2018-08-12T10:47:30.944Z,1010.25
2018-08-12T10:48:30.970Z,1010.26
2018-08-12T10:49:30.999Z,1010.23
2018-08-12T10:50:31.024Z,1010.20
2018-08-12T10:51:31.055Z,1010.19
2018-08-12T10:52:31.078Z,1010.16
2018-08-12T10:53:31.109Z,1010.18
2018-08-12T10:54:31.136Z,1010.12
2018-08-12T10:55:31.162Z,1010.11
2018-08-12T10:56:31.186Z,1010.13
2018-08-12T10:57:31.217Z,1010.16
2018-08-12T10:58:31.240Z,1010.24
2018-08-12T10:59:31.414Z,1010.21
2018-08-12T11:00:31.294Z,1010.14
2018-08-12T11:01:31.324Z,1010.15
2018-08-12T11:02:31.349Z,1010.17
2018-08-12T11:03:31.378Z,1010.13
2018-08-12T11:04:31.406Z,1010.15
2018-08-12T11:05:31.430Z,1010.13
2018-08-12T11:06:31.456Z,1010.14
2018-08-12T11:07:31.550Z,1010.05
2018-08-12T11:08:31.514Z,1010.09
2018-08-12T11:09:31.540Z,1010.04
2018-08-12T11:10:31.565Z,1010.01
2018-08-12T11:11:31.593Z,1010.01
2018-08-12T11:12:31.680Z,1009.98
2018-08-12T11:13:31.651Z,1009.98
2018-08-12T11:14:31.676Z,1009.95
2018-08-12T11:15:31.701Z,1009.94
2018-08-12T11:16:31.731Z,1009.99
2018-08-12T11:17:31.756Z,1009.94
2018-08-12T11:18:31.782Z,1009.94
2018-08-12T11:19:31.809Z,1009.96
2018-08-12T11:20:31.934Z,1009.91
2018-08-12T11:21:31.869Z,1009.96
2018-08-12T11:22:31.892Z,1009.92
2018-08-12T11:23:31.919Z,1009.90
2018-08-12T11:24:31.949Z,1009.86
2018-08-12T11:25:31.975Z,1009.90
2018-08-12T11:26:32.004Z,1009.85
2018-08-12T11:27:32.031Z,1009.81
2018-08-12T11:28:32.108Z,1009.83
2018-08-12T11:29:32.085Z,1009.82
2018-08-12T11:30:32.109Z,1009.78
2018-08-12T11:31:32.140Z,1009.80
2018-08-12T11:32:32.164Z,1009.82
2018-08-12T11:33:32.194Z,1009.84
2018-08-12T11:34:32.218Z,1009.79
2018-08-12T11:35:32.248Z,1009.81
2018-08-12T11:36:32.276Z,1009.80
2018-08-12T11:37:32.303Z,1009.87
2018-08-12T11:38:32.331Z,1009.79
2018-08-12T11:39:32.361Z,1009.80
2018-08-12T11:40:32.382Z,1009.74
2018-08-12T11:41:32.417Z,1009.73
2018-08-12T11:42:32.439Z,1009.72
2018-08-12T11:43:32.464Z,1009.70
2018-08-12T11:44:32.495Z,1009.72
2018-08-12T11:45:32.520Z,1009.72
2018-08-12T11:46:32.553Z,1009.70
2018-08-12T11:47:32.607Z,1009.71
2018-08-12T11:48:32.602Z,1009.66
2018-08-12T11:49:32.639Z,1009.68
2018-08-12T11:50:32.657Z,1009.64
2018-08-12T11:51:32.686Z,1009.60
2018-08-12T11:52:32.713Z,1009.64
2018-08-12T11:53:32.742Z,1009.62
2018-08-12T11:54:32.766Z,1009.66
2018-08-12T11:55:32.794Z,1009.64
2018-08-12T11:56:32.823Z,1009.63
2018-08-12T11:57:32.853Z,1009.65
2018-08-12T11:58:32.876Z,1009.64
2018-08-12T11:59:32.903Z,1009.60
2018-08-12T12:00:32.933Z,1009.56
2018-08-12T12:01:32.962Z,1009.56
2018-08-12T12:02:32.985Z,1009.52
2018-08-12T12:03:33.018Z,1009.52
2018-08-12T12:04:33.055Z,1009.58
2018-08-12T12:05:33.069Z,1009.53